Time;durP1;ratioP1;P1;durP2;ratioP2;P2;SDS_P1;SDS_P2;PMS_P1;PMS_P2;Temp;Humidity;BMP_temperature;BMP_pressure;BME280_temperature;BME280_humidity;BME280_pressure;Samples;Min_cycle;Max_cycle;Signal;HPM_P1;HPM_P2
2023/06/19 00:01:36;;;;;;;1.02;0.80;;;;;;;12.86;65.00;101504.91;10263967;29;20413;-79
2023/06/19 00:06:38;;;;;;;1.55;0.90;;;;;;;12.82;65.55;101529.41;10266169;29;20039;-79
2023/06/19 00:11:40;;;;;;;2.28;1.60;;;;;;;12.77;65.73;101525.81;10269632;29;20063;-80
2023/06/19 00:16:43;;;;;;;1.67;1.20;;;;;;;12.93;65.61;101514.53;10262079;29;20042;-79
2023/06/19 00:21:45;;;;;;;1.75;1.10;;;;;;;12.79;66.05;101521.69;10267263;28;20046;-79
2023/06/19 00:26:48;;;;;;;2.80;1.30;;;;;;;12.83;66.04;101521.97;10266372;29;20524;-80
2023/06/19 00:31:50;;;;;;;1.95;1.00;;;;;;;12.74;66.23;101518.13;10274139;29;20047;-80
2023/06/19 00:36:56;;;;;;;1.38;1.20;;;;;;;12.66;66.51;101513.97;10280514;29;20534;-79
2023/06/19 00:41:58;;;;;;;2.42;1.20;;;;;;;12.65;66.68;101509.56;10275099;29;20035;-80
2023/06/19 00:47:04;;;;;;;1.05;1.00;;;;;;;12.53;67.62;101512.59;10257611;29;20043;-80
2023/06/19 00:52:07;;;;;;;1.30;1.13;;;;;;;12.76;67.04;101516.75;10274171;29;20031;-80
2023/06/19 00:57:09;;;;;;;2.13;0.90;;;;;;;12.81;66.61;101515.91;10253028;29;20055;-80
2023/06/19 01:02:11;;;;;;;2.17;1.10;;;;;;;12.91;66.53;101508.50;10253615;29;20426;-80
2023/06/19 01:07:19;;;;;;;1.42;0.90;;;;;;;12.86;66.25;101505.75;10283786;29;20054;-81
2023/06/19 01:12:27;;;;;;;3.83;1.30;;;;;;;13.15;66.24;101505.16;10258583;29;20039;-81
2023/06/19 01:17:29;;;;;;;;;;;;;;;13.65;64.79;101507.03;10256567;29;20513;-81
2023/06/19 01:22:31;;;;;;;2.33;1.30;;;;;;;13.46;64.31;101504.03;10268453;29;19922;-80
2023/06/19 01:27:37;;;;;;;2.38;1.13;;;;;;;13.48;64.36;101504.59;10279552;29;20418;-80
2023/06/19 01:33:14;;;;;;;1.17;1.05;;;;;;;13.65;64.15;101503.44;10250517;29;20039;-80
2023/06/19 01:38:19;;;;;;;2.20;1.20;;;;;;;13.76;63.91;101496.78;10269645;29;20473;-80
2023/06/19 01:43:23;;;;;;;1.75;1.65;;;;;;;13.57;64.19;101491.88;10260402;29;20047;-80
2023/06/19 01:48:28;;;;;;;2.45;1.27;;;;;;;13.41;64.70;101498.53;10280235;29;20461;-80
2023/06/19 01:53:31;;;;;;;1.30;1.00;;;;;;;13.58;64.97;101490.78;10298539;28;20046;-80
2023/06/19 01:58:33;;;;;;;2.88;1.23;;;;;;;13.82;64.43;101490.13;10284251;28;20059;-80
2023/06/19 02:03:36;;;;;;;3.83;1.40;;;;;;;14.17;63.48;101495.47;10268112;29;20043;-80
2023/06/19 02:08:39;;;;;;;1.55;1.20;;;;;;;14.31;63.26;101500.38;10282556;29;20051;-80
2023/06/19 02:13:42;;;;;;;2.72;1.58;;;;;;;14.36;62.34;101497.59;10282405;29;20043;-79
2023/06/19 02:18:44;;;;;;;3.10;1.38;;;;;;;14.44;62.58;101499.78;10270929;29;20059;-79
2023/06/19 02:23:46;;;;;;;5.38;1.40;;;;;;;14.80;61.87;101507.81;10248822;29;20051;-79
2023/06/19 02:28:48;;;;;;;2.05;1.40;;;;;;;15.00;60.80;101497.41;10275743;29;20051;-79
2023/06/19 02:33:50;;;;;;;2.05;1.50;;;;;;;15.44;59.91;101501.13;10281646;29;20518;-79
2023/06/19 02:38:55;;;;;;;3.83;1.80;;;;;;;15.67;59.50;101505.91;10281682;29;20035;-79
2023/06/19 02:43:57;;;;;;;2.45;1.73;;;;;;;15.47;60.10;101504.16;10281201;28;20043;-78
2023/06/19 02:49:00;;;;;;;4.65;1.55;;;;;;;15.22;60.60;101504.41;10281624;29;20534;-81
2023/06/19 02:54:03;;;;;;;3.85;1.63;;;;;;;15.39;60.66;101502.84;10283442;29;20411;-79
2023/06/19 02:59:05;;;;;;;1.75;1.60;;;;;;;15.82;59.83;101491.06;10283480;29;20046;-81
2023/06/19 03:04:07;;;;;;;3.08;1.67;;;;;;;16.17;57.97;101496.16;10284216;29;20414;-80
2023/06/19 03:09:12;;;;;;;3.47;2.05;;;;;;;16.65;57.36;101492.38;10280065;29;20031;-80
2023/06/19 03:14:14;;;;;;;1.90;1.40;;;;;;;16.86;56.29;101488.22;10282411;29;20055;-80
2023/06/19 03:19:17;;;;;;;3.85;1.88;;;;;;;16.88;56.32;101488.72;10266655;29;20066;-79
2023/06/19 03:24:19;;;;;;;3.22;1.30;;;;;;;17.36;55.24;101477.34;10275289;28;20406;-79
2023/06/19 03:29:21;;;;;;;1.58;1.48;;;;;;;17.79;53.41;101483.44;10281503;28;20043;-79
2023/06/19 03:34:31;;;;;;;3.00;1.85;;;;;;;17.81;53.58;101478.41;10280873;29;20043;-79
2023/06/19 03:39:35;;;;;;;2.67;1.80;;;;;;;18.18;51.94;101479.28;10281642;29;20070;-80
2023/06/19 03:44:43;;;;;;;4.32;1.80;;;;;;;18.48;50.84;101480.53;10280363;29;20058;-79
2023/06/19 03:49:46;;;;;;;2.67;1.65;;;;;;;19.01;49.90;101475.06;10279235;29;20418;-79
2023/06/19 03:54:48;;;;;;;10.93;1.70;;;;;;;19.36;48.56;101484.44;10281916;28;20046;-80
2023/06/19 03:59:52;;;;;;;10.15;2.50;;;;;;;19.56;48.06;101483.09;10282422;28;20050;-80
2023/06/19 04:04:54;;;;;;;7.20;2.10;;;;;;;19.83;47.06;101468.13;10282425;29;20055;-81
2023/06/19 04:09:56;;;;;;;7.20;1.95;;;;;;;20.09;46.03;101468.97;10259909;29;20039;-81
2023/06/19 04:14:58;;;;;;;5.68;2.30;;;;;;;20.21;46.19;101473.94;10273319;29;20065;-81
2023/06/19 04:20:00;;;;;;;8.25;3.00;;;;;;;20.40;45.89;101468.84;10279796;29;20039;-79
2023/06/19 04:25:03;;;;;;;5.43;2.30;;;;;;;20.67;45.97;101466.94;10267212;29;20086;-79
2023/06/19 04:30:06;;;;;;;5.88;2.08;;;;;;;21.13;44.97;101462.56;10260915;29;20047;-79
2023/06/19 04:35:09;;;;;;;6.05;1.75;;;;;;;21.64;43.51;101461.59;10279322;29;20043;-81
2023/06/19 04:40:12;;;;;;;7.38;1.92;;;;;;;21.80;43.00;101464.63;10279609;28;20502;-81
2023/06/19 04:45:14;;;;;;;6.15;1.80;;;;;;;21.66;43.74;101459.28;10279474;29;20066;-81
2023/06/19 04:50:16;;;;;;;4.93;2.08;;;;;;;21.79;42.60;101463.00;10278783;29;20039;-80
2023/06/19 04:55:18;;;;;;;3.47;1.80;;;;;;;21.73;42.15;101467.16;10280727;28;20066;-79
2023/06/19 05:00:21;;;;;;;5.13;2.22;;;;;;;21.53;41.48;101463.13;10281826;28;20055;-79
2023/06/19 05:05:27;;;;;;;4.18;1.90;;;;;;;21.56;41.81;101457.69;10280841;28;20142;-82
2023/06/19 05:10:29;;;;;;;3.60;1.70;;;;;;;22.07;40.98;101455.78;10285762;29;20054;-80
2023/06/19 05:15:31;;;;;;;5.47;1.98;;;;;;;22.35;39.40;101449.66;10268358;28;20056;-80
2023/06/19 05:20:33;;;;;;;2.80;1.60;;;;;;;22.59;39.57;101448.97;10254299;29;20039;-81
2023/06/19 05:25:36;;;;;;;1.95;1.55;;;;;;;22.94;37.06;101449.50;10278054;28;20051;-81
2023/06/19 05:30:38;;;;;;;2.75;1.60;;;;;;;23.23;36.35;101443.72;10286781;29;20039;-82
2023/06/19 05:35:40;;;;;;;2.17;1.52;;;;;;;24.12;34.42;101437.41;10257445;29;20058;-82
2023/06/19 05:40:42;;;;;;;3.33;1.63;;;;;;;24.26;32.95;101438.66;10286211;28;20047;-82
2023/06/19 05:45:44;;;;;;;7.65;1.70;;;;;;;24.42;31.44;101440.75;10285430;29;20518;-82
2023/06/19 05:50:47;;;;;;;2.65;1.50;;;;;;;24.43;31.09;101443.22;10285679;28;20047;-82
2023/06/19 05:55:49;;;;;;;3.55;1.38;;;;;;;24.92;29.90;101443.81;10271887;29;20047;-81
2023/06/19 06:00:57;;;;;;;1.50;1.40;;;;;;;25.67;28.80;101447.78;10283101;29;20055;-81
2023/06/19 06:06:02;;;;;;;2.80;1.10;;;;;;;25.72;27.56;101447.53;10286284;28;20058;-81
2023/06/19 06:11:04;;;;;;;2.45;1.42;;;;;;;25.84;26.65;101451.03;10286507;29;20043;-85
2023/06/19 06:16:07;;;;;;;2.28;1.20;;;;;;;25.86;25.95;101459.13;10282686;29;20043;-82
2023/06/19 06:21:09;;;;;;;2.30;1.05;;;;;;;25.99;24.66;101463.44;10284177;28;20042;-82
2023/06/19 06:26:11;;;;;;;1.17;1.00;;;;;;;26.15;23.55;101454.97;10282274;29;20051;-83
2023/06/19 06:31:13;;;;;;;1.38;1.27;;;;;;;27.09;23.18;101441.69;10283016;29;20035;-81
2023/06/19 06:36:16;;;;;;;2.65;1.40;;;;;;;26.62;23.27;101443.56;10286231;29;20039;-81
2023/06/19 06:41:18;;;;;;;2.53;1.00;;;;;;;26.45;23.63;101441.19;10284281;29;20417;-80
2023/06/19 06:46:20;;;;;;;5.20;1.23;;;;;;;26.71;24.47;101446.94;10283389;29;20071;-80
2023/06/19 06:51:23;;;;;;;2.50;1.17;;;;;;;26.11;24.78;101440.03;10280342;29;20167;-81
2023/06/19 06:56:26;;;;;;;1.55;1.20;;;;;;;26.11;24.33;101438.03;10284813;28;20051;-82
2023/06/19 07:01:28;;;;;;;1.58;1.00;;;;;;;25.54;24.25;101447.88;10283898;28;20059;-83
2023/06/19 07:06:30;;;;;;;1.23;1.15;;;;;;;24.91;25.89;101438.56;10299052;28;20054;-82
2023/06/19 07:11:33;;;;;;;1.77;1.27;;;;;;;25.85;25.98;101447.03;10283829;29;20047;-82
2023/06/19 07:16:35;;;;;;;2.40;1.23;;;;;;;26.67;24.97;101437.63;10281032;28;20039;-80
2023/06/19 07:21:38;;;;;;;1.00;0.90;;;;;;;27.65;23.02;101432.59;10282533;28;20055;-80
2023/06/19 07:26:40;;;;;;;1.60;1.00;;;;;;;27.16;24.56;101424.91;10283506;29;20050;-80
2023/06/19 07:31:42;;;;;;;2.40;1.00;;;;;;;27.45;23.63;101426.22;10280776;28;20054;-83
2023/06/19 07:36:44;;;;;;;3.25;1.17;;;;;;;27.87;23.59;101432.53;10269429;29;20055;-77
2023/06/19 07:41:46;;;;;;;1.98;1.50;;;;;;;27.77;23.95;101412.63;10279988;29;20047;-75
2023/06/19 07:46:49;;;;;;;4.85;1.83;;;;;;;27.17;23.36;101413.25;10278186;28;20059;-77
2023/06/19 07:51:51;;;;;;;1.13;1.02;;;;;;;26.76;23.83;101416.88;10274658;28;20438;-76
2023/06/19 07:56:53;;;;;;;4.15;1.08;;;;;;;26.50;24.42;101415.56;10277584;29;20043;-77
2023/06/19 08:01:55;;;;;;;1.40;1.30;;;;;;;26.92;24.43;101412.78;10275170;29;20043;-77
2023/06/19 08:06:57;;;;;;;2.15;1.20;;;;;;;26.44;24.07;101412.22;10275183;29;20042;-75
2023/06/19 08:12:01;;;;;;;2.53;1.13;;;;;;;26.25;24.45;101412.19;10280099;29;20043;-76
2023/06/19 08:17:03;;;;;;;1.00;0.80;;;;;;;25.98;23.87;101416.81;10272846;29;20054;-76
2023/06/19 08:22:06;;;;;;;1.40;1.15;;;;;;;27.10;23.61;101412.31;10274518;29;20036;-76
2023/06/19 08:27:08;;;;;;;2.65;1.17;;;;;;;27.34;22.36;101407.09;10276999;29;20396;-76
2023/06/19 08:32:10;;;;;;;2.17;1.20;;;;;;;26.81;22.88;101408.13;10276026;28;20062;-77
2023/06/19 08:37:12;;;;;;;1.60;1.30;;;;;;;26.19;22.21;101408.03;10267594;29;20495;-75
2023/06/19 08:42:14;;;;;;;0.98;0.90;;;;;;;25.97;22.55;101398.31;10268653;29;20039;-78
2023/06/19 08:47:17;;;;;;;3.35;1.25;;;;;;;25.69;24.22;101406.94;10301782;28;20043;-76
2023/06/19 08:52:19;;;;;;;2.40;1.17;;;;;;;25.98;22.04;101394.31;10286703;29;20063;-75
2023/06/19 08:57:21;;;;;;;3.20;1.30;;;;;;;26.25;24.48;101394.50;10288467;29;20426;-76
2023/06/19 09:02:24;;;;;;;1.88;1.30;;;;;;;26.27;23.73;101384.50;10287980;28;20042;-76
2023/06/19 09:07:26;;;;;;;2.40;1.30;;;;;;;25.74;24.03;101394.56;10304007;28;20050;-76
2023/06/19 09:12:29;;;;;;;1.52;1.27;;;;;;;26.10;22.94;101382.13;10282751;29;20036;-76
2023/06/19 09:17:36;;;;;;;1.30;1.20;;;;;;;26.69;23.39;101384.56;10285754;28;20039;-74
2023/06/19 09:22:48;;;;;;;2.50;1.17;;;;;;;26.59;22.04;101379.56;10284899;29;20039;-78
2023/06/19 09:27:50;;;;;;;2.35;1.45;;;;;;;25.02;23.56;101385.53;10281365;29;20170;-78
2023/06/19 09:32:53;;;;;;;1.38;1.20;;;;;;;24.02;25.30;101377.88;10281595;28;20051;-76
2023/06/19 09:37:56;;;;;;;1.33;1.20;;;;;;;23.41;25.86;101372.31;10281155;29;20434;-75
2023/06/19 09:42:58;;;;;;;1.60;1.10;;;;;;;23.06;26.53;101368.31;10281987;29;20047;-74
2023/06/19 09:48:06;;;;;;;1.40;1.05;;;;;;;22.90;26.35;101358.97;10258990;29;20043;-75
2023/06/19 09:53:37;;;;;;;2.13;1.40;;;;;;;23.04;26.51;101360.28;10279667;28;20063;-74
2023/06/19 09:58:41;;;;;;;1.45;1.13;;;;;;;22.53;26.31;101356.84;10270037;28;20066;-74
2023/06/19 10:03:44;;;;;;;3.40;1.30;;;;;;;22.64;27.09;101357.25;10275694;29;20043;-75
2023/06/19 10:08:46;;;;;;;1.33;1.23;;;;;;;22.80;26.17;101346.22;10260662;29;20039;-74
2023/06/19 10:13:48;;;;;;;3.13;1.38;;;;;;;22.83;27.06;101349.16;10279562;29;20063;-74
2023/06/19 10:18:51;;;;;;;2.42;1.52;;;;;;;22.82;28.42;101361.53;10283153;29;20391;-74
2023/06/19 10:23:55;;;;;;;3.20;1.38;;;;;;;22.65;27.98;101349.69;10274432;29;20093;-74
2023/06/19 10:28:57;;;;;;;2.47;1.60;;;;;;;22.51;28.31;101341.59;10283558;29;20047;-75
2023/06/19 10:34:00;;;;;;;2.45;1.30;;;;;;;22.45;27.66;101334.59;10281755;29;20502;-77
2023/06/19 10:39:02;;;;;;;1.50;1.30;;;;;;;22.52;27.90;101326.44;10266918;29;20071;-78
2023/06/19 10:44:12;;;;;;;1.42;1.33;;;;;;;22.46;27.45;101327.81;10284363;28;20062;-77
2023/06/19 10:49:14;;;;;;;2.20;1.35;;;;;;;22.59;28.31;101323.09;10283808;29;20051;-77
2023/06/19 10:54:16;;;;;;;2.63;1.33;;;;;;;22.57;29.67;101312.25;10280602;28;20043;-76
2023/06/19 10:59:19;;;;;;;2.92;1.30;;;;;;;22.80;30.10;101315.44;10278992;29;20051;-79
2023/06/19 11:04:23;;;;;;;2.13;1.40;;;;;;;22.82;29.48;101307.53;10284203;28;20055;-77
2023/06/19 11:09:26;;;;;;;2.13;1.50;;;;;;;22.87;31.26;101304.50;10274323;28;20035;-80
2023/06/19 11:14:32;;;;;;;2.47;1.50;;;;;;;22.72;32.53;101299.56;10262759;29;20051;-78
2023/06/19 11:19:34;;;;;;;3.45;1.50;;;;;;;22.65;32.48;101297.34;10282528;28;20047;-78
2023/06/19 11:24:37;;;;;;;3.40;1.80;;;;;;;22.61;31.84;101284.41;10272539;28;20051;-80
2023/06/19 11:29:40;;;;;;;2.97;1.50;;;;;;;22.65;32.75;101285.34;10275301;28;20035;-77
2023/06/19 11:34:44;;;;;;;2.25;1.52;;;;;;;22.62;32.91;101274.84;10262465;29;20430;-76
2023/06/19 11:39:47;;;;;;;3.38;1.65;;;;;;;22.61;32.99;101274.03;10275166;29;20055;-75
2023/06/19 11:44:56;;;;;;;2.33;1.50;;;;;;;22.50;34.31;101279.25;10273216;29;20055;-75
2023/06/19 11:50:00;;;;;;;2.58;1.50;;;;;;;22.32;34.30;101277.78;10287417;28;20063;-76
2023/06/19 11:55:03;;;;;;;2.97;1.70;;;;;;;22.50;33.90;101272.81;10271867;29;20433;-74
2023/06/19 12:00:15;;;;;;;3.95;1.60;;;;;;;22.58;33.19;101254.34;10278183;28;20142;-76
2023/06/19 12:05:17;;;;;;;2.28;1.42;;;;;;;22.68;34.05;101262.25;10279366;29;20054;-75
2023/06/19 12:10:19;;;;;;;3.30;1.40;;;;;;;22.45;34.52;101259.06;10276649;29;20070;-74
2023/06/19 12:15:22;;;;;;;1.40;1.30;;;;;;;22.58;33.90;101249.56;10269782;28;20035;-73
2023/06/19 12:20:25;;;;;;;5.10;1.80;;;;;;;22.61;33.11;101248.03;10279507;29;20059;-76
2023/06/19 12:25:27;;;;;;;2.35;1.60;;;;;;;22.51;33.49;101238.91;10275218;28;20143;-76
2023/06/19 12:30:29;;;;;;;6.53;1.60;;;;;;;22.64;33.83;101239.75;10277330;28;20050;-76
2023/06/19 12:35:32;;;;;;;3.40;1.58;;;;;;;22.83;33.75;101231.63;10277740;28;20043;-82
2023/06/19 12:40:34;;;;;;;1.67;1.45;;;;;;;23.00;33.88;101224.16;10283590;28;20051;-76
2023/06/19 12:45:36;;;;;;;1.90;1.60;;;;;;;23.19;33.71;101227.16;10277622;28;20066;-74
2023/06/19 12:50:38;;;;;;;1.90;1.40;;;;;;;23.19;33.85;101227.16;10276311;29;20035;-74
2023/06/19 12:55:41;;;;;;;2.60;1.75;;;;;;;23.07;34.38;101218.78;10273609;28;20062;-74
2023/06/19 13:00:43;;;;;;;1.80;1.58;;;;;;;23.17;34.28;101216.31;10287584;29;20512;-74
2023/06/19 13:05:46;;;;;;;4.65;1.77;;;;;;;23.11;34.93;101202.94;10258582;29;20062;-75
2023/06/19 13:10:48;;;;;;;1.77;1.50;;;;;;;23.08;34.78;101193.25;10280226;29;20051;-77
2023/06/19 13:15:51;;;;;;;3.53;1.77;;;;;;;22.95;35.59;101199.22;10279703;28;20043;-74
2023/06/19 13:20:53;;;;;;;3.05;2.15;;;;;;;22.90;34.79;101189.06;10278301;28;20063;-78
2023/06/19 13:25:55;;;;;;;3.20;2.58;;;;;;;22.86;34.67;101191.75;10276660;28;20039;-73
2023/06/19 13:30:57;;;;;;;2.10;1.70;;;;;;;22.92;35.23;101181.16;10284144;28;20054;-74
2023/06/19 13:36:00;;;;;;;2.08;1.27;;;;;;;23.01;34.96;101184.63;10280652;28;20047;-74
2023/06/19 13:41:02;;;;;;;1.92;1.63;;;;;;;23.07;34.50;101174.00;10271334;28;20043;-74
2023/06/19 13:46:05;;;;;;;2.75;1.65;;;;;;;23.19;34.71;101165.56;10285492;29;20059;-75
2023/06/19 13:51:08;;;;;;;3.38;1.90;;;;;;;23.14;35.03;101169.44;10279102;29;20051;-73
2023/06/19 13:56:11;;;;;;;3.50;1.75;;;;;;;23.11;34.94;101158.94;10286673;28;20051;-74
2023/06/19 14:01:13;;;;;;;1.75;1.63;;;;;;;23.15;35.43;101167.47;10296773;28;20043;-74
2023/06/19 14:06:15;;;;;;;2.63;1.77;;;;;;;23.30;35.07;101161.13;10285656;29;20047;-74
2023/06/19 14:11:18;;;;;;;4.35;2.08;;;;;;;23.31;34.79;101162.75;10286154;29;20070;-74
2023/06/19 14:16:21;;;;;;;2.05;1.70;;;;;;;23.36;35.00;101159.69;10277435;29;20047;-74
2023/06/19 14:21:23;;;;;;;4.22;1.90;;;;;;;23.42;33.37;101152.66;10283569;28;20499;-73
2023/06/19 14:26:25;;;;;;;3.10;1.90;;;;;;;23.58;32.82;101135.13;10285958;28;20043;-74
2023/06/19 14:31:27;;;;;;;2.42;1.75;;;;;;;23.74;32.40;101147.19;10284999;29;20055;-73
2023/06/19 14:36:32;;;;;;;4.22;2.10;;;;;;;23.87;31.97;101142.34;10283618;29;20135;-76
2023/06/19 14:41:34;;;;;;;3.00;1.50;;;;;;;23.79;31.65;101144.13;10277925;28;20062;-74
2023/06/19 14:46:39;;;;;;;3.05;1.88;;;;;;;23.74;31.95;101139.59;10280244;29;20066;-74
2023/06/19 14:51:42;;;;;;;2.78;2.03;;;;;;;23.72;32.08;101133.53;10282815;28;20051;-76
2023/06/19 14:56:47;;;;;;;4.40;1.85;;;;;;;23.64;32.14;101126.13;10265765;29;20043;-76
2023/06/19 15:01:49;;;;;;;5.50;1.83;;;;;;;23.58;31.59;101129.50;10279144;28;20498;-76
2023/06/19 15:06:52;;;;;;;4.20;1.92;;;;;;;23.61;32.17;101112.81;10283216;29;20054;-77
2023/06/19 15:11:54;;;;;;;3.20;2.13;;;;;;;23.63;32.44;101121.69;10274152;29;20138;-77
2023/06/19 15:16:57;;;;;;;6.20;1.85;;;;;;;23.61;32.04;101121.22;10282724;29;20046;-77
2023/06/19 15:21:59;;;;;;;5.25;2.13;;;;;;;23.58;32.15;101112.69;10281488;29;20043;-75
2023/06/19 15:27:02;;;;;;;3.83;2.05;;;;;;;23.53;31.80;101119.34;10283590;29;20055;-75
2023/06/19 15:32:05;;;;;;;3.42;1.80;;;;;;;23.50;32.63;101110.84;10281411;29;20044;-76
2023/06/19 15:37:07;;;;;;;5.03;2.08;;;;;;;23.50;32.17;101114.47;10281004;29;20391;-75
2023/06/19 15:42:09;;;;;;;2.20;2.00;;;;;;;23.57;32.22;101113.88;10282015;29;20059;-76
2023/06/19 15:47:11;;;;;;;5.72;1.95;;;;;;;23.66;31.98;101114.53;10282112;29;20051;-74
2023/06/19 15:52:14;;;;;;;4.47;2.28;;;;;;;23.59;31.80;101119.94;10279723;28;20047;-76
2023/06/19 15:57:16;;;;;;;7.18;2.30;;;;;;;23.60;32.21;101107.56;10282458;28;20043;-76
2023/06/19 16:02:19;;;;;;;2.80;1.80;;;;;;;23.54;32.15;101104.19;10280665;29;20043;-75
2023/06/19 16:07:21;;;;;;;3.92;2.35;;;;;;;23.51;32.66;101115.28;10281452;28;20043;-76
2023/06/19 16:12:23;;;;;;;3.63;1.83;;;;;;;23.37;32.93;101110.09;10280503;28;20058;-76
2023/06/19 16:17:25;;;;;;;4.40;1.90;;;;;;;23.30;33.85;101107.91;10280856;28;20047;-76
2023/06/19 16:22:27;;;;;;;7.55;1.85;;;;;;;23.20;34.55;101107.59;10281995;28;20408;-77
2023/06/19 16:27:29;;;;;;;2.72;1.95;;;;;;;23.09;35.22;101110.91;10280578;29;20047;-75
2023/06/19 16:32:32;;;;;;;3.10;2.03;;;;;;;23.06;35.02;101106.00;10280297;29;20054;-75
2023/06/19 16:37:34;;;;;;;3.85;1.92;;;;;;;23.03;35.18;101103.91;10281630;29;20430;-73
2023/06/19 16:42:36;;;;;;;2.55;1.92;;;;;;;22.97;34.58;101096.94;10280119;28;20055;-76
2023/06/19 16:47:38;;;;;;;2.92;1.90;;;;;;;22.77;34.45;101087.50;10269844;29;20050;-75
2023/06/19 16:52:40;;;;;;;4.70;2.25;;;;;;;22.77;33.96;101095.91;10279426;28;20035;-74
2023/06/19 16:57:43;;;;;;;3.75;1.92;;;;;;;22.71;34.15;101088.09;10270800;29;20039;-78
2023/06/19 17:02:46;;;;;;;3.33;1.80;;;;;;;22.58;34.08;101089.28;10278672;28;20216;-75
2023/06/19 17:07:49;;;;;;;3.35;2.17;;;;;;;22.54;34.92;101087.19;10276196;28;20055;-74
2023/06/19 17:12:51;;;;;;;3.38;1.95;;;;;;;22.49;34.33;101083.81;10285318;29;20043;-72
2023/06/19 17:17:53;;;;;;;6.05;2.13;;;;;;;22.58;34.43;101078.09;10285795;28;20058;-73
2023/06/19 17:22:57;;;;;;;5.55;2.80;;;;;;;22.52;34.93;101083.09;10283264;29;20035;-78
2023/06/19 17:27:59;;;;;;;5.22;2.53;;;;;;;22.45;34.95;101080.09;10280927;28;20055;-74
2023/06/19 17:33:02;;;;;;;6.30;2.75;;;;;;;22.39;35.76;101078.69;10280700;28;20058;-76
2023/06/19 17:38:04;;;;;;;8.18;2.35;;;;;;;22.38;35.22;101089.06;10279121;29;20047;-77
2023/06/19 17:43:06;;;;;;;5.65;2.22;;;;;;;22.40;35.49;101072.75;10278316;29;20042;-74
2023/06/19 17:48:09;;;;;;;6.57;2.35;;;;;;;22.25;35.51;101068.69;10277847;28;20051;-74
2023/06/19 17:53:11;;;;;;;5.60;2.60;;;;;;;22.19;35.74;101066.44;10276737;29;20038;-74
2023/06/19 17:58:13;;;;;;;7.03;2.50;;;;;;;22.07;35.90;101069.28;10280384;28;20046;-77
2023/06/19 18:03:15;;;;;;;3.65;2.40;;;;;;;22.03;36.00;101069.09;10281854;29;20050;-73
2023/06/19 18:08:18;;;;;;;10.57;3.03;;;;;;;22.04;36.24;101069.91;10263441;29;20043;-75
2023/06/19 18:13:20;;;;;;;6.32;3.20;;;;;;;22.00;36.15;101068.97;10279669;28;20040;-74
2023/06/19 18:18:22;;;;;;;6.20;3.58;;;;;;;21.93;36.28;101059.19;10278352;28;20047;-75
2023/06/19 18:23:24;;;;;;;4.72;2.72;;;;;;;21.84;37.02;101063.25;10275494;28;20047;-73
2023/06/19 18:28:27;;;;;;;6.78;2.70;;;;;;;21.77;36.65;101065.81;10276135;29;20055;-74
2023/06/19 18:33:29;;;;;;;4.63;2.78;;;;;;;21.78;36.78;101071.06;10282301;29;20046;-73
2023/06/19 18:38:31;;;;;;;5.70;2.60;;;;;;;21.63;37.54;101071.72;10276678;29;20042;-74
2023/06/19 18:43:34;;;;;;;5.10;2.65;;;;;;;21.42;38.46;101068.16;10278320;28;20513;-74
2023/06/19 18:48:36;;;;;;;8.02;2.80;;;;;;;21.34;38.24;101072.66;10277957;28;20046;-72
2023/06/19 18:53:39;;;;;;;3.47;2.00;;;;;;;21.19;38.48;101068.53;10289427;28;20051;-75
2023/06/19 18:58:41;;;;;;;4.32;2.35;;;;;;;21.11;38.81;101065.81;10281563;28;20047;-78
2023/06/19 19:03:44;;;;;;;3.35;2.20;;;;;;;21.02;38.85;101063.09;10279597;28;20043;-76
2023/06/19 19:08:46;;;;;;;5.85;2.58;;;;;;;20.91;38.93;101071.06;10278334;29;20098;-76
2023/06/19 19:13:48;;;;;;;4.63;2.47;;;;;;;20.93;38.99;101070.72;10276264;29;20050;-75
2023/06/19 19:18:50;;;;;;;6.80;2.75;;;;;;;20.86;39.33;101070.44;10286245;28;20035;-75
2023/06/19 19:23:53;;;;;;;4.55;2.55;;;;;;;20.77;39.45;101059.34;10276993;28;20506;-74
2023/06/19 19:28:55;;;;;;;3.28;2.35;;;;;;;20.65;39.36;101065.69;10265858;28;20051;-75
2023/06/19 19:33:57;;;;;;;3.70;2.67;;;;;;;20.52;39.68;101083.47;10279133;29;20070;-73
2023/06/19 19:38:59;;;;;;;5.47;2.70;;;;;;;20.36;39.75;101079.59;10273891;28;20051;-75
2023/06/19 19:44:02;;;;;;;4.97;2.55;;;;;;;20.26;40.14;101080.78;10278896;28;20043;-75
2023/06/19 19:49:04;;;;;;;3.60;2.97;;;;;;;20.05;40.74;101080.72;10280833;29;20055;-76
2023/06/19 19:54:06;;;;;;;8.32;2.10;;;;;;;19.99;41.20;101076.50;10270774;29;20090;-75
2023/06/19 19:59:08;;;;;;;4.13;2.35;;;;;;;19.95;42.79;101081.09;10274729;29;20055;-74
2023/06/19 20:04:12;;;;;;;2.80;1.98;;;;;;;20.12;42.85;101081.00;10274462;29;20047;-75
2023/06/19 20:09:14;;;;;;;3.90;2.08;;;;;;;20.08;43.59;101080.06;10277061;28;20054;-75
2023/06/19 20:14:16;;;;;;;3.88;2.20;;;;;;;20.20;43.36;101084.13;10281473;28;20067;-75
2023/06/19 20:19:18;;;;;;;2.90;2.20;;;;;;;20.17;43.89;101083.63;10280615;29;20039;-77
2023/06/19 20:24:20;;;;;;;8.48;2.40;;;;;;;20.07;44.79;101078.44;10266488;29;20043;-76
2023/06/19 20:29:23;;;;;;;6.38;2.70;;;;;;;20.07;44.77;101078.44;10280125;29;20055;-76
2023/06/19 20:34:25;;;;;;;3.90;2.28;;;;;;;19.88;44.64;101078.84;10281623;28;20050;-78
2023/06/19 20:39:30;;;;;;;3.67;2.38;;;;;;;19.65;44.62;101071.06;10285488;28;20059;-75
2023/06/19 20:44:34;;;;;;;4.60;2.03;;;;;;;19.90;44.18;101069.31;10270294;29;20046;-77
2023/06/19 20:49:36;;;;;;;4.45;2.28;;;;;;;20.05;43.78;101065.97;10288157;29;20051;-74
2023/06/19 20:54:38;;;;;;;4.00;2.83;;;;;;;20.11;43.32;101062.66;10302935;28;20050;-75
2023/06/19 20:59:41;;;;;;;3.55;2.10;;;;;;;20.35;42.83;101058.47;10277996;29;20426;-75
2023/06/19 21:04:43;;;;;;;3.47;2.33;;;;;;;20.59;42.09;101057.84;10293466;28;20047;-75
2023/06/19 21:09:45;;;;;;;4.30;2.20;;;;;;;20.60;42.14;101063.06;10283915;28;20051;-73
2023/06/19 21:14:47;;;;;;;3.72;2.17;;;;;;;20.68;41.35;101065.00;10282845;29;20045;-72
2023/06/19 21:19:50;;;;;;;4.63;2.38;;;;;;;20.64;41.48;101049.25;10284950;29;20058;-74
2023/06/19 21:24:52;;;;;;;3.55;2.25;;;;;;;20.76;41.57;101054.94;10282104;28;20422;-73
2023/06/19 21:29:54;;;;;;;3.83;2.58;;;;;;;20.80;41.21;101063.41;10283841;29;20035;-75
2023/06/19 21:34:56;;;;;;;4.70;2.67;;;;;;;20.62;41.83;101054.38;10280241;28;20066;-74
2023/06/19 21:39:59;;;;;;;6.38;2.67;;;;;;;20.46;41.97;101051.34;10282542;29;20099;-75
2023/06/19 21:45:02;;;;;;;4.07;2.17;;;;;;;20.35;42.59;101056.50;10283769;29;20070;-75
2023/06/19 21:50:05;;;;;;;4.13;2.38;;;;;;;20.28;42.68;101055.38;10286100;28;20039;-75
2023/06/19 21:55:08;;;;;;;3.67;2.15;;;;;;;20.04;43.79;101047.63;10285375;29;20035;-75
2023/06/19 22:00:14;;;;;;;3.63;2.10;;;;;;;20.17;43.44;101058.56;10286373;29;20039;-72
2023/06/19 22:05:16;;;;;;;2.55;2.10;;;;;;;19.97;43.68;101050.13;10283734;28;20040;-76
2023/06/19 22:10:21;;;;;;;3.90;2.00;;;;;;;19.72;44.59;101058.25;10283772;29;20391;-75
2023/06/19 22:15:23;;;;;;;2.33;2.00;;;;;;;19.82;44.63;101060.69;10283929;29;20502;-73
2023/06/19 22:20:25;;;;;;;2.13;1.80;;;;;;;19.71;46.00;101064.16;10263743;28;20047;-73
2023/06/19 22:25:27;;;;;;;3.28;2.28;;;;;;;19.52;46.72;101058.94;10284322;29;20047;-73
2023/06/19 22:30:30;;;;;;;4.55;2.13;;;;;;;19.56;47.69;101059.94;10275691;28;20142;-74
2023/06/19 22:35:32;;;;;;;2.85;1.83;;;;;;;19.55;48.01;101066.66;10283168;28;20051;-76
2023/06/19 22:40:34;;;;;;;2.95;1.83;;;;;;;19.76;47.77;101058.38;10283087;28;20521;-73
2023/06/19 22:45:36;;;;;;;3.65;2.00;;;;;;;19.82;48.16;101057.06;10279916;29;20377;-73
2023/06/19 22:50:38;;;;;;;4.05;1.80;;;;;;;19.77;49.00;101057.25;10265535;29;20414;-73
2023/06/19 22:55:40;;;;;;;2.38;2.00;;;;;;;19.73;49.75;101050.72;10275380;29;20038;-73
2023/06/19 23:00:43;;;;;;;2.88;1.90;;;;;;;19.71;50.02;101053.81;10280420;28;20054;-72
2023/06/19 23:05:45;;;;;;;3.85;2.10;;;;;;;19.62;51.51;101055.03;10271496;29;20051;-72
2023/06/19 23:10:47;;;;;;;2.60;2.08;;;;;;;19.22;53.24;101053.25;10269052;29;20051;-73